Time;durP1;ratioP1;P1;durP2;ratioP2;P2;SDS_P1;SDS_P2;PMS_P1;PMS_P2;Temp;Humidity;BMP_temperature;BMP_pressure;BME280_temperature;BME280_humidity;BME280_pressure;Samples;Min_cycle;Max_cycle;Signal;HPM_P1;HPM_P2
2022/05/19 00:00:15;;;;;;;2.07;1.97;;;;;;;14.73;100.00;96865.47;5030952;27;102797;-60
2022/05/19 00:02:45;;;;;;;2.53;2.30;;;;;;;14.09;100.00;96871.34;5031850;27;102068;-60
2022/05/19 00:05:13;;;;;;;3.13;2.03;;;;;;;14.36;100.00;96866.69;5031314;27;102232;-60
2022/05/19 00:07:41;;;;;;;2.97;2.33;;;;;;;14.40;100.00;96859.75;5034483;27;102639;-60
2022/05/19 00:10:10;;;;;;;3.57;2.20;;;;;;;13.90;100.00;96859.50;5031465;27;102309;-60
2022/05/19 00:12:37;;;;;;;2.73;2.00;;;;;;;14.44;100.00;96858.16;5029018;28;104338;-60
2022/05/19 00:15:05;;;;;;;2.33;2.20;;;;;;;14.61;100.00;96856.84;5029968;28;102053;-60
2022/05/19 00:17:32;;;;;;;2.47;2.07;;;;;;;14.67;100.00;96850.44;5031219;27;102321;-60
2022/05/19 00:19:59;;;;;;;2.37;2.20;;;;;;;14.68;100.00;96846.72;5029124;28;107708;-60
2022/05/19 00:22:27;;;;;;;2.83;2.30;;;;;;;14.77;100.00;96847.78;5030928;28;101817;-60
2022/05/19 00:24:54;;;;;;;2.17;2.03;;;;;;;14.74;100.00;96845.66;5029656;27;102558;-60
2022/05/19 00:27:23;;;;;;;2.97;2.40;;;;;;;14.73;100.00;96844.06;5030491;28;102682;-60
2022/05/19 00:29:50;;;;;;;2.40;2.20;;;;;;;14.83;100.00;96843.28;5034661;28;101860;-60
2022/05/19 00:32:21;;;;;;;2.40;2.30;;;;;;;14.66;100.00;96834.66;5029097;28;105765;-60
2022/05/19 00:34:48;;;;;;;2.40;2.20;;;;;;;14.55;100.00;96830.38;5030277;28;104379;-60
2022/05/19 00:37:15;;;;;;;2.50;2.13;;;;;;;14.51;100.00;96835.41;5031011;28;102322;-60
2022/05/19 00:39:42;;;;;;;2.77;2.30;;;;;;;14.99;100.00;96834.97;5028965;28;105630;-60
2022/05/19 00:45:06;;;;;;;3.23;2.37;;;;;;;14.68;100.00;96824.50;5029205;28;103537;-60
2022/05/19 00:47:39;;;;;;;2.40;2.20;;;;;;;14.31;100.00;96829.22;5030482;28;102661;-60
2022/05/19 00:50:11;;;;;;;2.43;2.13;;;;;;;14.30;100.00;96827.59;5032779;28;101799;-60
2022/05/19 00:52:42;;;;;;;2.30;2.20;;;;;;;14.39;100.00;96834.84;5030350;28;102633;-60
2022/05/19 00:55:13;;;;;;;2.40;2.30;;;;;;;14.31;100.00;96829.22;5029150;28;101890;-60
2022/05/19 00:57:45;;;;;;;3.20;2.73;;;;;;;14.03;100.00;96826.94;5029114;28;103506;-60
2022/05/19 01:00:17;;;;;;;2.63;2.43;;;;;;;14.43;100.00;96835.94;5028728;28;105370;-60
2022/05/19 01:02:48;;;;;;;4.40;2.50;;;;;;;14.47;100.00;96829.00;5030933;27;101919;-60
2022/05/19 01:05:19;;;;;;;3.20;2.90;;;;;;;14.03;100.00;96835.78;5030223;28;102627;-60
2022/05/19 01:07:51;;;;;;;2.80;2.60;;;;;;;13.87;100.00;96823.41;5028400;28;105590;-60
2022/05/19 01:10:22;;;;;;;4.27;2.40;;;;;;;14.02;100.00;96828.00;5030498;28;101985;-60
2022/05/19 01:12:51;;;;;;;2.70;2.50;;;;;;;14.10;100.00;96828.31;5031865;28;103541;-60
2022/05/19 01:15:20;;;;;;;3.23;2.77;;;;;;;13.38;100.00;96816.69;5030502;28;101930;-60
2022/05/19 01:17:48;;;;;;;2.63;2.37;;;;;;;13.52;100.00;96814.38;5028779;28;105252;-60
2022/05/19 01:20:18;;;;;;;3.47;2.40;;;;;;;13.50;100.00;96817.31;5029400;28;104245;-60
2022/05/19 01:22:56;;;;;;;3.07;2.70;;;;;;;13.72;100.00;96826.00;5030581;27;101783;-60
2022/05/19 01:25:33;;;;;;;3.10;2.70;;;;;;;13.70;100.00;96811.28;5030189;28;102328;-60
2022/05/19 01:28:02;;;;;;;3.43;2.40;;;;;;;13.86;100.00;96820.97;5029840;28;102551;-60
2022/05/19 01:30:29;;;;;;;2.83;2.50;;;;;;;13.74;100.00;96807.03;5030142;28;102028;-60
2022/05/19 01:32:56;;;;;;;2.80;2.43;;;;;;;13.75;100.00;96805.97;5030320;28;102587;-60
2022/05/19 01:35:23;;;;;;;3.37;3.07;;;;;;;13.81;100.00;96802.25;5031448;28;105791;-60
2022/05/19 01:37:51;;;;;;;2.80;2.60;;;;;;;13.78;100.00;96808.09;5030239;27;102321;-60
2022/05/19 01:40:36;;;;;;;2.73;2.50;;;;;;;13.33;100.00;96799.81;5029296;28;102563;-60
2022/05/19 01:43:16;;;;;;;2.90;2.70;;;;;;;12.81;100.00;96806.88;5030456;28;101934;-60
2022/05/19 01:45:59;;;;;;;2.80;2.60;;;;;;;12.93;100.00;96800.28;5030175;27;102327;-60
2022/05/19 01:48:35;;;;;;;2.90;2.60;;;;;;;13.12;100.00;96814.09;5029575;28;102716;-60
2022/05/19 01:51:11;;;;;;;3.20;3.00;;;;;;;13.46;100.00;96802.06;5030225;27;101695;-61
2022/05/19 01:53:42;;;;;;;3.03;2.70;;;;;;;13.50;100.00;96811.16;5030141;28;102316;-60
2022/05/19 01:56:15;;;;;;;4.93;3.43;;;;;;;13.94;100.00;96805.25;5029155;28;102714;-60
2022/05/19 01:58:49;;;;;;;2.93;2.67;;;;;;;14.00;100.00;96795.38;5031994;28;101887;-61
2022/05/19 02:01:20;;;;;;;4.53;3.30;;;;;;;13.83;100.00;96805.44;5029375;28;102653;-60
2022/05/19 02:03:56;;;;;;;3.40;2.87;;;;;;;13.89;100.00;96807.09;5028414;28;101906;-60
2022/05/19 02:06:28;;;;;;;3.40;2.70;;;;;;;13.46;100.00;96812.75;5028172;28;105095;-61
2022/05/19 02:08:59;;;;;;;4.00;2.87;;;;;;;13.12;100.00;96811.41;5029348;27;102602;-60
2022/05/19 02:11:30;;;;;;;3.47;2.43;;;;;;;12.75;100.00;96813.22;5028227;28;101819;-60
2022/05/19 02:14:03;;;;;;;2.80;2.43;;;;;;;12.99;100.00;96811.84;5028419;28;103690;-60
2022/05/19 02:16:32;;;;;;;3.47;2.70;;;;;;;13.62;100.00;96823.25;5028332;27;105760;-61
2022/05/19 02:18:59;;;;;;;2.97;2.77;;;;;;;13.55;100.00;96811.19;5033440;28;101970;-60
2022/05/19 02:21:28;;;;;;;3.33;3.03;;;;;;;13.51;100.00;96812.78;5035817;27;102314;-60
2022/05/19 02:23:58;;;;;;;2.83;2.63;;;;;;;13.69;100.00;96818.47;5032684;28;101818;-60
2022/05/19 02:26:25;;;;;;;3.53;2.93;;;;;;;13.07;100.00;96811.38;5032963;28;103871;-60
2022/05/19 02:28:57;;;;;;;3.27;2.70;;;;;;;13.14;100.00;96822.66;5030774;28;105407;-60
2022/05/19 02:31:26;;;;;;;2.77;2.57;;;;;;;13.19;100.00;96814.69;5033079;28;101694;-60
2022/05/19 02:33:53;;;;;;;3.27;2.97;;;;;;;13.20;100.00;96813.63;5032673;28;102355;-60
2022/05/19 02:36:20;;;;;;;2.90;2.30;;;;;;;13.34;100.00;96820.13;5032283;28;102774;-60
2022/05/19 02:38:47;;;;;;;2.70;2.50;;;;;;;13.48;100.00;96821.28;5033128;27;101872;-60
2022/05/19 02:41:15;;;;;;;2.67;2.40;;;;;;;13.57;100.00;96812.53;5032867;28;102347;-60
2022/05/19 02:43:42;;;;;;;4.17;2.80;;;;;;;13.52;100.00;96820.50;5035619;27;102796;-61
2022/05/19 02:46:09;;;;;;;3.17;2.67;;;;;;;13.40;100.00;96821.78;5032627;28;102384;-60
2022/05/19 02:48:38;;;;;;;3.63;2.73;;;;;;;13.20;100.00;96816.31;5032386;27;102543;-60
2022/05/19 02:51:05;;;;;;;3.70;2.80;;;;;;;13.24;100.00;96815.53;5031147;28;101957;-60
2022/05/19 02:53:32;;;;;;;2.90;2.70;;;;;;;13.33;100.00;96819.34;5031324;28;103782;-60
2022/05/19 02:56:00;;;;;;;3.40;2.70;;;;;;;13.26;100.00;96816.09;5031736;28;102617;-60
2022/05/19 02:58:27;;;;;;;2.60;2.40;;;;;;;13.14;100.00;96817.31;5032591;27;101885;-60
2022/05/19 03:00:54;;;;;;;3.80;2.50;;;;;;;13.16;100.00;96817.88;5032688;28;102433;-60
2022/05/19 03:03:21;;;;;;;2.87;2.67;;;;;;;13.05;100.00;96825.00;5035416;28;102692;-60
2022/05/19 03:05:51;;;;;;;3.63;2.67;;;;;;;13.05;100.00;96825.00;5032280;28;102853;-60
2022/05/19 03:08:19;;;;;;;12.53;2.87;;;;;;;13.06;100.00;96825.78;5031677;28;102592;-60
2022/05/19 03:10:46;;;;;;;3.00;2.80;;;;;;;13.01;100.00;96831.09;5032556;28;101861;-61
2022/05/19 03:13:17;;;;;;;4.20;2.80;;;;;;;13.14;100.00;96828.78;5032307;28;102561;-60
2022/05/19 03:15:45;;;;;;;3.50;3.20;;;;;;;13.23;100.00;96829.13;5032103;27;102564;-60
2022/05/19 03:18:12;;;;;;;3.27;2.77;;;;;;;13.22;100.00;96836.34;5032276;27;101740;-60
2022/05/19 03:20:39;;;;;;;3.13;2.80;;;;;;;13.09;100.00;96826.09;5030529;28;105180;-60
2022/05/19 03:23:08;;;;;;;3.40;2.97;;;;;;;13.31;100.00;96834.00;5030077;28;105324;-60
2022/05/19 03:25:35;;;;;;;3.43;3.13;;;;;;;13.47;100.00;96841.06;5035163;28;101907;-61
2022/05/19 03:28:02;;;;;;;3.40;2.80;;;;;;;13.28;100.00;96831.84;5029650;27;106396;-61
2022/05/19 03:30:29;;;;;;;4.67;3.13;;;;;;;13.02;100.00;96822.81;5032231;28;102020;-60
2022/05/19 03:32:56;;;;;;;3.10;2.80;;;;;;;13.34;100.00;96822.78;5032233;28;102393;-60
2022/05/19 03:35:24;;;;;;;3.73;3.20;;;;;;;13.15;100.00;96818.94;5029762;28;102692;-60
2022/05/19 03:37:51;;;;;;;4.83;3.60;;;;;;;13.25;100.00;96822.47;5031869;28;102068;-60
2022/05/19 03:40:19;;;;;;;4.23;3.83;;;;;;;13.14;100.00;96828.00;5031774;28;102413;-60
2022/05/19 03:42:46;;;;;;;4.10;3.03;;;;;;;13.32;100.00;96836.44;5031196;28;103100;-60
2022/05/19 03:45:27;;;;;;;3.40;2.90;;;;;;;13.36;100.00;96834.03;5031317;27;101935;-60
2022/05/19 03:47:54;;;;;;;3.60;3.37;;;;;;;12.95;100.00;96822.22;5033602;28;102930;-60
2022/05/19 03:50:23;;;;;;;3.37;3.07;;;;;;;12.95;100.00;96829.41;5029011;28;101765;-60
2022/05/19 03:52:51;;;;;;;3.33;3.13;;;;;;;12.39;100.00;96832.59;5031796;27;103034;-60
2022/05/19 03:55:20;;;;;;;3.50;2.93;;;;;;;12.80;100.00;96839.97;5030537;28;103169;-60
2022/05/19 03:57:47;;;;;;;3.60;3.30;;;;;;;12.91;100.00;96833.66;5029947;28;102328;-60
2022/05/19 04:00:15;;;;;;;3.13;2.93;;;;;;;12.83;100.00;96834.94;5030355;28;103665;-60
2022/05/19 04:02:45;;;;;;;3.33;3.13;;;;;;;12.88;100.00;96839.50;5028626;27;102373;-64
2022/05/19 04:05:14;;;;;;;3.80;3.50;;;;;;;13.47;100.00;96833.84;5024018;28;102968;-61
2022/05/19 04:07:43;;;;;;;4.00;3.70;;;;;;;12.95;100.00;96834.75;5030797;27;102759;-60
2022/05/19 04:10:12;;;;;;;6.70;3.87;;;;;;;12.84;100.00;96825.84;5032630;28;104095;-61
2022/05/19 04:12:43;;;;;;;4.20;3.40;;;;;;;12.93;100.00;96831.53;5031611;27;102799;-61
2022/05/19 04:15:11;;;;;;;6.97;3.77;;;;;;;12.84;100.00;96841.06;5030343;28;103682;-62
2022/05/19 04:17:39;;;;;;;4.73;3.47;;;;;;;12.94;100.00;96839.28;5029111;27;102212;-62
2022/05/19 04:20:08;;;;;;;3.90;3.60;;;;;;;13.09;100.00;96834.09;5029155;28;102960;-61
2022/05/19 04:22:36;;;;;;;3.40;3.20;;;;;;;13.12;100.00;96828.25;5029393;28;102870;-61
2022/05/19 04:25:04;;;;;;;4.73;3.73;;;;;;;13.14;100.00;96836.03;5031300;27;102340;-61
2022/05/19 04:27:31;;;;;;;3.67;3.37;;;;;;;13.05;100.00;96842.88;5029031;27;102438;-61
2022/05/19 04:30:01;;;;;;;3.47;3.17;;;;;;;12.99;100.00;96843.91;5028413;28;103086;-61
2022/05/19 04:32:31;;;;;;;3.43;3.13;;;;;;;13.36;100.00;96837.50;5028545;28;103664;-61
2022/05/19 04:34:58;;;;;;;4.90;3.30;;;;;;;13.54;100.00;96838.97;5028455;28;105453;-61
2022/05/19 04:37:25;;;;;;;4.53;3.43;;;;;;;13.63;100.00;96843.56;5029097;28;102253;-61
2022/05/19 04:39:55;;;;;;;5.03;3.60;;;;;;;14.00;100.00;96846.97;5026809;27;105240;-61
2022/05/19 04:42:27;;;;;;;3.80;3.40;;;;;;;13.98;100.00;96842.97;5026716;28;103958;-61
2022/05/19 04:44:55;;;;;;;4.33;3.60;;;;;;;14.08;100.00;96851.03;5029163;28;102347;-61
2022/05/19 04:47:24;;;;;;;3.97;3.60;;;;;;;14.20;100.00;96848.97;5028936;28;105714;-61
2022/05/19 04:49:51;;;;;;;3.73;3.40;;;;;;;14.37;100.00;96849.56;5026327;28;105188;-61
2022/05/19 04:52:20;;;;;;;4.43;3.33;;;;;;;14.37;100.00;96850.38;5026529;28;102761;-61
2022/05/19 04:54:53;;;;;;;3.70;3.07;;;;;;;14.55;100.00;96851.78;5030430;28;105596;-61
2022/05/19 04:57:21;;;;;;;4.73;3.67;;;;;;;14.74;100.00;96844.84;5028570;28;101936;-61
2022/05/19 04:59:47;;;;;;;3.33;3.03;;;;;;;14.92;100.00;96850.50;5029043;28;105274;-61
2022/05/19 05:02:16;;;;;;;3.97;3.57;;;;;;;14.89;100.00;96845.66;5029096;28;103712;-61
2022/05/19 05:04:44;;;;;;;3.70;3.40;;;;;;;15.04;100.00;96847.59;5010280;28;103325;-61
2022/05/19 05:07:12;;;;;;;4.57;3.20;;;;;;;15.09;100.00;96842.22;5029003;27;102365;-61
2022/05/19 05:09:39;;;;;;;3.77;3.33;;;;;;;15.20;100.00;96843.84;5022389;28;105405;-61
2022/05/19 05:12:24;;;;;;;3.50;3.20;;;;;;;15.18;100.00;96848.63;5012735;27;102589;-61
2022/05/19 05:14:53;;;;;;;3.50;3.20;;;;;;;15.29;100.00;96844.88;5013193;28;102379;-61
2022/05/19 05:17:21;;;;;;;5.50;3.80;;;;;;;15.28;100.00;96854.00;5019170;28;101920;-61
2022/05/19 05:19:50;;;;;;;5.33;3.53;;;;;;;15.13;100.00;96854.00;5030636;27;102535;-61
2022/05/19 05:22:17;;;;;;;4.43;3.10;;;;;;;15.44;100.00;96861.00;5028300;28;103773;-61
2022/05/19 05:24:44;;;;;;;6.80;3.67;;;;;;;15.38;100.00;96856.72;5030391;28;101918;-61
2022/05/19 05:27:11;;;;;;;4.37;3.80;;;;;;;15.41;100.00;96856.16;5028884;28;103691;-61
2022/05/19 05:29:39;;;;;;;5.27;3.00;;;;;;;15.57;100.00;96858.56;5028455;28;105376;-61
2022/05/19 05:32:13;;;;;;;4.07;3.67;;;;;;;15.50;100.00;96859.91;5030423;27;102006;-61
2022/05/19 05:34:40;;;;;;;4.07;2.93;;;;;;;15.67;100.00;96861.25;5028426;28;103534;-61
2022/05/19 05:37:09;;;;;;;3.10;2.90;;;;;;;15.86;100.00;96862.28;5033233;27;102748;-60
2022/05/19 05:39:36;;;;;;;5.13;3.33;;;;;;;16.02;100.00;96873.78;5028887;28;104849;-60
2022/05/19 05:42:05;;;;;;;4.53;3.23;;;;;;;16.05;100.00;96873.22;5028299;28;105541;-60
2022/05/19 05:44:31;;;;;;;6.93;3.77;;;;;;;15.98;100.00;96875.41;5028928;27;102103;-60
2022/05/19 05:50:25;;;;;;;8.23;4.10;;;;;;;15.65;100.00;96878.69;5028607;27;102919;-60
2022/05/19 05:52:54;;;;;;;6.73;3.67;;;;;;;15.64;100.00;96880.53;5033957;27;102004;-60
2022/05/19 05:55:22;;;;;;;5.40;4.40;;;;;;;15.72;100.00;96876.50;5033332;28;102286;-60
2022/05/19 05:57:50;;;;;;;4.30;3.90;;;;;;;15.97;100.00;96871.91;5032482;27;103194;-60
2022/05/19 06:00:19;;;;;;;4.47;3.97;;;;;;;16.16;100.00;96877.47;5036946;28;102073;-60
2022/05/19 06:02:48;;;;;;;5.67;3.30;;;;;;;16.42;100.00;96873.66;5031705;28;103769;-60
2022/05/19 06:05:16;;;;;;;4.03;3.67;;;;;;;16.24;100.00;96879.63;5032021;28;102096;-60
2022/05/19 06:07:43;;;;;;;4.40;3.83;;;;;;;16.17;100.00;96876.41;5031942;28;105345;-60
2022/05/19 06:10:13;;;;;;;4.43;3.70;;;;;;;16.49;100.00;96884.91;5031211;28;103878;-60
2022/05/19 06:12:41;;;;;;;4.20;3.80;;;;;;;16.52;100.00;96884.38;5032818;27;101889;-59
2022/05/19 06:15:17;;;;;;;4.40;3.70;;;;;;;16.60;100.00;96886.47;5033222;28;102458;-59
2022/05/19 06:17:44;;;;;;;4.77;3.97;;;;;;;16.82;100.00;96886.88;5031083;28;105390;-58
2022/05/19 06:20:14;;;;;;;7.03;4.23;;;;;;;16.90;100.00;96889.00;5032992;27;102307;-58
2022/05/19 06:22:42;;;;;;;4.77;3.93;;;;;;;16.96;100.00;96888.66;5034150;28;105429;-58
2022/05/19 06:25:14;;;;;;;4.77;3.40;;;;;;;17.15;100.00;96889.63;5032416;27;101959;-59
2022/05/19 06:27:42;;;;;;;6.30;4.17;;;;;;;17.13;100.00;96881.06;5033117;27;102779;-58
2022/05/19 06:30:12;;;;;;;5.60;4.23;;;;;;;17.33;100.00;96885.50;5031729;28;102778;-58
2022/05/19 06:32:40;;;;;;;4.37;4.00;;;;;;;17.36;100.00;96887.59;5032720;27;101790;-60
2022/05/19 06:35:09;;;;;;;6.73;4.20;;;;;;;17.45;100.00;96884.03;5032534;28;102611;-57
2022/05/19 06:37:36;;;;;;;4.73;3.70;;;;;;;17.62;100.00;96889.03;5032087;27;103265;-58
2022/05/19 06:40:04;;;;;;;6.27;3.67;;;;;;;17.65;100.00;96888.47;5033240;27;101869;-56
2022/05/19 06:42:37;;;;;;;4.10;3.70;;;;;;;17.73;100.00;96893.25;5032642;28;102368;-58
2022/05/19 06:45:19;;;;;;;6.10;4.00;;;;;;;17.99;100.00;96887.31;5034206;28;103812;-59
2022/05/19 06:47:48;;;;;;;6.97;4.07;;;;;;;18.16;100.00;96889.56;5033332;27;101676;-59
2022/05/19 06:50:28;;;;;;;9.07;4.03;;;;;;;18.24;100.00;96887.06;5032070;28;103170;-59
2022/05/19 06:53:01;;;;;;;4.43;4.03;;;;;;;18.52;100.00;96893.50;5032814;28;102031;-58
2022/05/19 06:55:29;;;;;;;14.27;4.80;;;;;;;18.74;100.00;96883.00;5032468;28;102642;-60
2022/05/19 06:57:58;;;;;;;5.03;3.80;;;;;;;18.64;100.00;96886.59;5031981;28;102988;-59
2022/05/19 07:00:28;;;;;;;5.63;3.60;;;;;;;18.76;100.00;96891.56;5032595;27;102190;-59
2022/05/19 07:02:58;;;;;;;9.57;4.60;;;;;;;18.99;100.00;96888.03;5029979;27;104827;-58
2022/05/19 07:05:29;;;;;;;4.27;3.87;;;;;;;19.12;100.00;96887.31;5030449;28;106361;-58
2022/05/19 07:07:56;;;;;;;4.67;4.20;;;;;;;18.76;100.00;96891.56;5035672;28;102318;-59
2022/05/19 07:10:37;;;;;;;6.10;4.30;;;;;;;18.49;100.00;96891.38;5030442;28;105285;-59
2022/05/19 07:13:07;;;;;;;5.43;3.70;;;;;;;19.22;100.00;96881.78;5030835;28;102147;-59
2022/05/19 07:16:06;;;;;;;5.20;3.97;;;;;;;19.51;100.00;96885.91;5030141;28;105387;-59
2022/05/19 07:18:33;;;;;;;8.80;4.83;;;;;;;19.46;100.00;96883.28;5030063;28;105303;-59
2022/05/19 07:21:04;;;;;;;4.20;3.80;;;;;;;19.35;100.00;96881.84;5030780;28;102007;-58
2022/05/19 07:23:32;;;;;;;4.57;4.17;;;;;;;20.03;100.00;96877.44;5030320;28;104914;-59
2022/05/19 07:26:00;;;;;;;5.33;3.40;;;;;;;20.19;100.00;96875.28;5029665;28;104749;-59
2022/05/19 07:28:29;;;;;;;5.10;3.57;;;;;;;20.13;100.00;96877.28;5034107;28;102050;-59
2022/05/19 07:30:56;;;;;;;5.67;4.13;;;;;;;20.06;100.00;96881.44;5030260;28;105485;-58
2022/05/19 07:33:28;;;;;;;4.40;3.40;;;;;;;20.21;100.00;96884.69;5031192;28;103340;-59
2022/05/19 07:35:56;;;;;;;3.80;3.40;;;;;;;20.38;100.00;96884.88;5030377;28;105614;-59
2022/05/19 07:38:26;;;;;;;6.07;3.93;;;;;;;20.56;100.00;96880.50;5031438;27;102568;-59
2022/05/19 07:40:55;;;;;;;6.17;3.80;;;;;;;20.74;100.00;96876.84;5031071;28;101969;-58
2022/05/19 07:43:39;;;;;;;4.57;3.53;;;;;;;21.05;100.00;96877.84;5030562;28;105662;-59
2022/05/19 07:46:11;;;;;;;4.47;3.13;;;;;;;21.28;100.00;96879.47;5029527;28;104303;-58
2022/05/19 07:48:39;;;;;;;5.03;3.60;;;;;;;21.39;100.00;96878.13;5032094;27;101688;-58
2022/05/19 07:51:13;;;;;;;3.47;3.17;;;;;;;21.19;100.00;96882.09;5034773;28;102757;-58
2022/05/19 07:53:40;;;;;;;5.63;3.83;;;;;;;20.32;100.00;96874.50;5032197;28;101737;-58
2022/05/19 07:56:08;;;;;;;4.30;3.20;;;;;;;21.12;100.00;96878.22;5029691;28;105700;-57
2022/05/19 07:58:34;;;;;;;3.80;3.40;;;;;;;21.36;100.00;96879.53;5029664;28;104369;-58
2022/05/19 08:01:05;;;;;;;4.43;3.10;;;;;;;21.74;100.00;96878.09;5030972;28;103384;-58
2022/05/19 08:03:34;;;;;;;5.43;3.27;;;;;;;21.65;100.00;96882.63;5030264;28;105313;-59
2022/05/19 08:06:01;;;;;;;4.37;3.30;;;;;;;22.26;100.00;96877.25;5029008;28;104357;-59
2022/05/19 08:08:28;;;;;;;5.07;3.00;;;;;;;22.20;100.00;96883.13;5031328;28;102276;-59
2022/05/19 08:11:02;;;;;;;5.20;2.97;;;;;;;22.74;100.00;96874.56;5030478;28;103140;-58
2022/05/19 08:16:33;;;;;;;2.90;2.70;;;;;;;23.20;100.00;96874.81;5031112;28;102872;-59
2022/05/19 08:19:01;;;;;;;4.93;2.63;;;;;;;23.16;100.00;96879.28;5029185;28;105839;-59
2022/05/19 08:21:30;;;;;;;8.77;3.47;;;;;;;22.77;100.00;96877.44;5031355;28;101902;-55
2022/05/19 08:23:58;;;;;;;3.70;3.03;;;;;;;22.88;100.00;96875.25;5030856;27;102584;-59
2022/05/19 08:26:25;;;;;;;3.63;2.73;;;;;;;23.24;100.00;96875.78;5028393;28;105943;-59
2022/05/19 08:28:53;;;;;;;4.03;2.77;;;;;;;23.65;100.00;96876.09;5046313;27;102055;-57
2022/05/19 08:32:16;;;;;;;4.07;2.83;;;;;;;23.84;100.00;96877.34;5043943;27;103968;-58
2022/05/19 08:34:46;;;;;;;5.33;2.83;;;;;;;23.33;100.00;96874.66;5015000;28;102537;-59
2022/05/19 08:37:13;;;;;;;2.90;2.60;;;;;;;23.92;100.00;96884.72;5034277;28;101875;-58
2022/05/19 08:39:40;;;;;;;2.67;2.50;;;;;;;24.22;100.00;96875.53;5028914;28;105582;-59
2022/05/19 08:42:39;;;;;;;5.70;3.13;;;;;;;23.74;100.00;96877.69;5029724;28;103336;-57
2022/05/19 08:45:31;;;;;;;3.43;2.80;;;;;;;24.21;100.00;96878.56;5030735;28;102428;-58
2022/05/19 08:48:03;;;;;;;3.03;2.50;;;;;;;24.79;100.00;96871.28;5028909;28;105863;-58
2022/05/19 08:50:39;;;;;;;5.07;2.83;;;;;;;25.07;100.00;96872.38;5029587;28;101938;-59
2022/05/19 08:53:06;;;;;;;3.87;2.60;;;;;;;25.38;100.00;96874.72;5029358;28;104213;-58
2022/05/19 08:55:34;;;;;;;4.37;2.53;;;;;;;24.91;97.74;96876.03;5028505;28;105728;-58
2022/05/19 08:58:13;;;;;;;5.73;2.53;;;;;;;24.90;100.00;96869.00;5029368;28;102386;-59
2022/05/19 09:01:02;;;;;;;3.00;2.40;;;;;;;24.32;100.00;96877.09;5032045;28;105252;-59
2022/05/19 09:03:34;;;;;;;4.23;2.50;;;;;;;24.52;100.00;96874.44;5029419;28;101923;-58
2022/05/19 09:06:23;;;;;;;4.00;2.60;;;;;;;25.31;100.00;96879.94;5028981;28;105269;-59
2022/05/19 09:09:05;;;;;;;5.47;2.90;;;;;;;25.66;93.14;96876.56;5008832;28;103851;-58
2022/05/19 09:11:39;;;;;;;4.20;2.80;;;;;;;25.83;90.66;96886.53;5028361;28;102036;-58
2022/05/19 09:14:17;;;;;;;2.73;2.53;;;;;;;25.74;98.64;96883.09;5028373;28;104488;-58
2022/05/19 09:16:53;;;;;;;5.70;2.83;;;;;;;25.97;98.74;96887.03;5028438;28;105675;-59
2022/05/19 09:19:25;;;;;;;3.93;2.40;;;;;;;26.00;91.29;96883.66;5029257;28;103062;-58
2022/05/19 09:22:08;;;;;;;3.20;2.67;;;;;;;26.42;86.50;96883.16;5028966;28;104841;-58
2022/05/19 09:24:36;;;;;;;5.47;2.70;;;;;;;26.77;95.75;96872.66;5030886;27;101818;-58
2022/05/19 09:27:05;;;;;;;3.47;2.43;;;;;;;26.37;84.26;96875.22;5028284;28;105772;-58
2022/05/19 09:29:35;;;;;;;4.07;2.30;;;;;;;26.35;89.75;96868.50;5029887;27;102597;-58
2022/05/19 09:32:15;;;;;;;4.03;2.70;;;;;;;25.49;83.09;96873.19;5030009;28;101968;-58
2022/05/19 09:34:46;;;;;;;4.70;2.60;;;;;;;26.31;78.46;96871.13;5029826;27;102480;-58
2022/05/19 09:37:18;;;;;;;3.40;2.60;;;;;;;25.83;83.42;96867.47;5028847;27;104163;-58
2022/05/19 09:39:50;;;;;;;4.20;2.57;;;;;;;26.49;93.71;96868.97;5027729;28;101965;-58
2022/05/19 09:42:33;;;;;;;2.47;2.27;;;;;;;26.79;86.21;96871.16;5028841;28;105121;-59
2022/05/19 09:45:04;;;;;;;4.33;2.30;;;;;;;27.19;77.83;96865.81;5033064;27;103066;-59
2022/05/19 09:47:33;;;;;;;5.83;2.73;;;;;;;27.24;87.58;96869.09;5045824;27;105302;-56
2022/05/19 09:50:11;;;;;;;2.47;2.27;;;;;;;27.72;85.07;96868.94;5022817;28;105853;-57
2022/05/19 09:52:42;;;;;;;5.43;2.63;;;;;;;28.01;78.04;96863.13;5028593;28;102339;-57
2022/05/19 09:55:12;;;;;;;5.73;2.50;;;;;;;27.81;76.43;96866.06;5028101;28;105278;-58
2022/05/19 09:57:45;;;;;;;4.00;2.37;;;;;;;28.56;72.77;96856.75;5029221;28;103129;-57
2022/05/19 10:00:25;;;;;;;3.37;2.20;;;;;;;28.61;68.66;96851.78;5029879;27;101767;-57
2022/05/19 10:02:56;;;;;;;4.20;2.03;;;;;;;28.71;48.71;96850.47;5030058;27;102492;-57
2022/05/19 10:05:33;;;;;;;1.70;1.60;;;;;;;28.18;48.05;96846.38;5029620;27;103200;-57
2022/05/19 10:08:05;;;;;;;5.50;2.28;;;;;;;29.06;61.88;96841.16;5033483;28;101788;-58
2022/05/19 10:10:43;;;;;;;4.32;2.22;;;;;;;29.51;59.56;96837.81;5028091;28;105540;-58
2022/05/19 10:13:16;;;;;;;5.78;2.38;;;;;;;29.49;60.05;96840.13;5029880;28;101924;-57
2022/05/19 10:15:58;;;;;;;2.47;1.83;;;;;;;30.06;60.80;96837.34;5028493;28;104090;-56
2022/05/19 10:18:53;;;;;;;2.95;1.80;;;;;;;30.08;59.75;96835.81;5029104;28;102622;-58
2022/05/19 10:21:40;;;;;;;3.25;1.90;;;;;;;30.36;51.70;96835.56;5026950;28;102053;-57
2022/05/19 10:24:30;;;;;;;3.63;2.30;;;;;;;29.98;48.17;96835.63;5029769;28;102386;-56
2022/05/19 10:32:57;;;;;;;5.65;2.05;;;;;;;30.38;57.80;96834.03;5032667;27;103072;-56
2022/05/19 10:35:34;;;;;;;27.02;4.03;;;;;;;30.74;55.51;96829.94;5029226;28;102308;-57
2022/05/19 10:38:22;;;;;;;3.70;2.20;;;;;;;30.17;57.31;96827.38;5029933;28;104374;-59
2022/05/19 10:41:39;;;;;;;5.03;2.10;;;;;;;30.39;51.13;96827.38;5031962;28;103271;-59
2022/05/19 10:44:25;;;;;;;13.48;2.65;;;;;;;30.19;52.12;96827.81;5056716;27;101885;-57
2022/05/19 10:47:01;;;;;;;5.25;2.17;;;;;;;28.93;50.17;96816.97;5028706;28;105751;-59
2022/05/19 10:49:58;;;;;;;2.45;2.25;;;;;;;27.93;52.74;96820.34;5031913;27;101988;-58
2022/05/19 10:52:36;;;;;;;3.90;2.13;;;;;;;29.26;50.19;96814.59;5015896;27;102209;-59
2022/05/19 10:55:22;;;;;;;2.28;2.17;;;;;;;28.68;51.29;96808.19;5031348;28;105083;-57
2022/05/19 10:58:04;;;;;;;3.05;2.75;;;;;;;28.84;48.50;96808.94;5035241;28;102719;-56
2022/05/19 11:01:12;;;;;;;2.60;2.40;;;;;;;29.71;46.19;96810.06;5032502;27;102337;-58
2022/05/19 11:04:05;;;;;;;4.93;2.47;;;;;;;30.62;45.50;96799.91;5031295;28;102576;-58
2022/05/19 11:06:51;;;;;;;2.47;2.28;;;;;;;31.35;42.99;96794.72;5029437;27;102014;-57
2022/05/19 11:09:29;;;;;;;3.40;2.28;;;;;;;31.17;42.63;96796.44;5032594;28;102553;-58
2022/05/19 11:12:11;;;;;;;2.50;2.28;;;;;;;30.64;43.55;96792.91;5030188;28;104158;-58
2022/05/19 11:14:55;;;;;;;4.32;2.53;;;;;;;29.20;47.76;96792.16;5030672;28;101878;-60
2022/05/19 11:17:31;;;;;;;2.58;2.35;;;;;;;29.99;53.53;96791.38;5031419;28;102361;-60
2022/05/19 11:20:05;;;;;;;2.17;2.00;;;;;;;30.90;50.34;96784.66;5028846;28;102685;-60
2022/05/19 11:22:37;;;;;;;2.72;2.28;;;;;;;30.04;46.52;96784.78;5035978;27;101813;-60
2022/05/19 11:27:58;;;;;;;2.95;2.40;;;;;;;29.61;49.68;96777.75;5019360;28;103212;-60
2022/05/19 11:30:41;;;;;;;3.28;2.30;;;;;;;30.84;54.13;96771.63;5031803;27;103515;-60
2022/05/19 11:33:15;;;;;;;3.15;2.45;;;;;;;30.58;45.31;96766.91;5030613;27;102608;-59
2022/05/19 11:35:47;;;;;;;4.13;2.08;;;;;;;31.25;53.61;96771.44;5031870;28;101992;-60
2022/05/19 11:38:21;;;;;;;2.40;2.20;;;;;;;31.13;50.64;96763.41;5031847;27;102295;-59
2022/05/19 11:41:20;;;;;;;3.45;2.50;;;;;;;30.06;47.89;96761.34;5030912;28;102594;-60
2022/05/19 11:43:52;;;;;;;2.45;2.30;;;;;;;30.90;48.09;96767.41;5035639;28;101674;-60
2022/05/19 11:46:24;;;;;;;4.97;2.25;;;;;;;31.90;46.46;96764.34;5029235;28;105519;-60
2022/05/19 11:57:39;;;;;;;3.05;2.30;;;;;;;31.13;43.82;96759.84;5025308;28;101735;-59
2022/05/19 12:00:11;;;;;;;4.28;2.55;;;;;;;30.91;44.37;96749.75;5031584;28;102401;-60
2022/05/19 12:02:49;;;;;;;2.83;2.33;;;;;;;31.17;42.96;96752.47;5017013;28;103082;-59
2022/05/19 12:05:23;;;;;;;3.20;2.45;;;;;;;31.79;41.42;96746.16;5031329;28;101862;-60
2022/05/19 12:07:54;;;;;;;3.92;2.25;;;;;;;31.65;40.23;96748.72;5034413;27;102295;-58